sensor_id;sensor_type;location;lat;lon;timestamp;P1;durP1;ratioP1;P2;durP2;ratioP2
5209;SDS011;2624;48.048;11.706;2023-06-19T00:02:33;7.23;;;6.53;;
5209;SDS011;2624;48.048;11.706;2023-06-19T00:07:36;14.43;;;7.87;;
5209;SDS011;2624;48.048;11.706;2023-06-19T00:12:38;9.47;;;7.50;;
5209;SDS011;2624;48.048;11.706;2023-06-19T00:17:40;8.37;;;6.60;;
5209;SDS011;2624;48.048;11.706;2023-06-19T00:22:43;7.33;;;6.60;;
5209;SDS011;2624;48.048;11.706;2023-06-19T00:27:45;8.27;;;6.70;;
5209;SDS011;2624;48.048;11.706;2023-06-19T00:32:47;14.97;;;6.20;;
5209;SDS011;2624;48.048;11.706;2023-06-19T00:37:51;8.70;;;6.00;;
5209;SDS011;2624;48.048;11.706;2023-06-19T00:42:52;8.60;;;6.13;;
5209;SDS011;2624;48.048;11.706;2023-06-19T00:47:55;10.47;;;6.90;;
5209;SDS011;2624;48.048;11.706;2023-06-19T00:52:59;8.53;;;6.40;;
5209;SDS011;2624;48.048;11.706;2023-06-19T00:58:04;10.30;;;6.73;;
5209;SDS011;2624;48.048;11.706;2023-06-19T01:03:06;13.50;;;6.70;;
5209;SDS011;2624;48.048;11.706;2023-06-19T01:08:10;9.87;;;6.47;;
5209;SDS011;2624;48.048;11.706;2023-06-19T01:13:17;8.10;;;7.30;;
5209;SDS011;2624;48.048;11.706;2023-06-19T01:18:25;11.03;;;7.50;;
5209;SDS011;2624;48.048;11.706;2023-06-19T01:23:29;7.40;;;6.67;;
5209;SDS011;2624;48.048;11.706;2023-06-19T01:28:30;7.80;;;6.50;;
5209;SDS011;2624;48.048;11.706;2023-06-19T01:33:32;20.53;;;7.00;;
5209;SDS011;2624;48.048;11.706;2023-06-19T01:38:38;8.80;;;6.70;;
5209;SDS011;2624;48.048;11.706;2023-06-19T01:43:41;8.60;;;7.10;;
5209;SDS011;2624;48.048;11.706;2023-06-19T01:48:44;11.60;;;7.47;;
5209;SDS011;2624;48.048;11.706;2023-06-19T01:53:47;7.63;;;6.53;;
5209;SDS011;2624;48.048;11.706;2023-06-19T01:58:49;9.67;;;7.03;;
5209;SDS011;2624;48.048;11.706;2023-06-19T02:03:50;7.63;;;6.83;;
5209;SDS011;2624;48.048;11.706;2023-06-19T02:08:53;6.77;;;6.07;;
5209;SDS011;2624;48.048;11.706;2023-06-19T02:13:55;14.00;;;7.10;;
5209;SDS011;2624;48.048;11.706;2023-06-19T02:18:57;14.27;;;8.13;;
5209;SDS011;2624;48.048;11.706;2023-06-19T02:24:01;9.63;;;6.27;;
5209;SDS011;2624;48.048;11.706;2023-06-19T02:29:04;8.97;;;7.23;;
5209;SDS011;2624;48.048;11.706;2023-06-19T02:34:06;14.73;;;7.00;;
5209;SDS011;2624;48.048;11.706;2023-06-19T02:39:09;10.23;;;7.10;;
5209;SDS011;2624;48.048;11.706;2023-06-19T02:44:11;9.03;;;7.60;;
5209;SDS011;2624;48.048;11.706;2023-06-19T02:49:12;9.10;;;7.70;;
5209;SDS011;2624;48.048;11.706;2023-06-19T02:54:15;8.30;;;7.00;;
5209;SDS011;2624;48.048;11.706;2023-06-19T02:59:17;8.43;;;6.73;;
5209;SDS011;2624;48.048;11.706;2023-06-19T03:04:19;8.63;;;7.07;;
5209;SDS011;2624;48.048;11.706;2023-06-19T03:09:22;9.57;;;6.93;;
5209;SDS011;2624;48.048;11.706;2023-06-19T03:14:24;9.03;;;6.47;;
5209;SDS011;2624;48.048;11.706;2023-06-19T03:19:25;8.67;;;7.03;;
5209;SDS011;2624;48.048;11.706;2023-06-19T03:24:29;8.53;;;6.43;;
5209;SDS011;2624;48.048;11.706;2023-06-19T03:29:30;8.30;;;6.97;;
5209;SDS011;2624;48.048;11.706;2023-06-19T03:34:32;8.37;;;6.97;;
5209;SDS011;2624;48.048;11.706;2023-06-19T03:39:35;7.93;;;6.83;;
5209;SDS011;2624;48.048;11.706;2023-06-19T03:44:37;8.13;;;6.57;;
5209;SDS011;2624;48.048;11.706;2023-06-19T03:49:39;13.33;;;6.60;;
5209;SDS011;2624;48.048;11.706;2023-06-19T03:54:42;7.40;;;6.60;;
5209;SDS011;2624;48.048;11.706;2023-06-19T03:59:43;7.00;;;6.00;;
5209;SDS011;2624;48.048;11.706;2023-06-19T04:04:45;11.60;;;7.07;;
5209;SDS011;2624;48.048;11.706;2023-06-19T04:09:48;7.43;;;6.60;;
5209;SDS011;2624;48.048;11.706;2023-06-19T04:14:50;8.00;;;5.57;;
5209;SDS011;2624;48.048;11.706;2023-06-19T04:19:52;10.30;;;6.43;;
5209;SDS011;2624;48.048;11.706;2023-06-19T04:24:55;9.17;;;7.07;;
5209;SDS011;2624;48.048;11.706;2023-06-19T04:29:56;7.50;;;6.20;;
5209;SDS011;2624;48.048;11.706;2023-06-19T04:34:58;8.33;;;6.60;;
5209;SDS011;2624;48.048;11.706;2023-06-19T04:40:01;14.30;;;6.90;;
5209;SDS011;2624;48.048;11.706;2023-06-19T04:45:04;7.90;;;5.90;;
5209;SDS011;2624;48.048;11.706;2023-06-19T04:50:07;10.63;;;6.80;;
5209;SDS011;2624;48.048;11.706;2023-06-19T04:55:10;8.60;;;7.23;;
5209;SDS011;2624;48.048;11.706;2023-06-19T05:00:12;8.17;;;7.37;;
5209;SDS011;2624;48.048;11.706;2023-06-19T05:05:14;8.40;;;7.20;;
5209;SDS011;2624;48.048;11.706;2023-06-19T05:10:18;17.47;;;6.87;;
5209;SDS011;2624;48.048;11.706;2023-06-19T05:15:20;11.80;;;7.73;;
5209;SDS011;2624;48.048;11.706;2023-06-19T05:20:21;20.47;;;7.90;;
5209;SDS011;2624;48.048;11.706;2023-06-19T05:25:24;14.00;;;7.10;;
5209;SDS011;2624;48.048;11.706;2023-06-19T05:30:27;11.17;;;7.37;;
5209;SDS011;2624;48.048;11.706;2023-06-19T05:35:29;9.40;;;7.83;;
5209;SDS011;2624;48.048;11.706;2023-06-19T05:40:33;15.73;;;7.90;;
5209;SDS011;2624;48.048;11.706;2023-06-19T05:45:35;19.97;;;7.90;;
5209;SDS011;2624;48.048;11.706;2023-06-19T05:50:36;8.80;;;7.43;;
5209;SDS011;2624;48.048;11.706;2023-06-19T05:55:39;12.33;;;7.47;;
5209;SDS011;2624;48.048;11.706;2023-06-19T06:00:41;8.83;;;6.33;;
5209;SDS011;2624;48.048;11.706;2023-06-19T06:05:43;18.33;;;6.93;;
5209;SDS011;2624;48.048;11.706;2023-06-19T06:10:50;12.97;;;6.43;;
5209;SDS011;2624;48.048;11.706;2023-06-19T06:15:51;19.33;;;7.87;;
5209;SDS011;2624;48.048;11.706;2023-06-19T06:20:53;14.80;;;6.73;;
5209;SDS011;2624;48.048;11.706;2023-06-19T06:25:56;14.10;;;6.80;;
5209;SDS011;2624;48.048;11.706;2023-06-19T06:31:02;7.90;;;6.30;;
5209;SDS011;2624;48.048;11.706;2023-06-19T06:36:04;9.73;;;6.47;;
5209;SDS011;2624;48.048;11.706;2023-06-19T06:41:07;13.20;;;6.13;;
5209;SDS011;2624;48.048;11.706;2023-06-19T06:46:09;6.50;;;5.90;;
5209;SDS011;2624;48.048;11.706;2023-06-19T06:51:11;6.97;;;5.40;;
5209;SDS011;2624;48.048;11.706;2023-06-19T06:56:14;7.20;;;6.13;;
5209;SDS011;2624;48.048;11.706;2023-06-19T07:01:16;8.40;;;5.93;;
5209;SDS011;2624;48.048;11.706;2023-06-19T07:06:17;7.43;;;5.70;;
5209;SDS011;2624;48.048;11.706;2023-06-19T07:11:20;7.57;;;4.97;;
5209;SDS011;2624;48.048;11.706;2023-06-19T07:16:22;6.87;;;5.20;;
5209;SDS011;2624;48.048;11.706;2023-06-19T07:21:24;6.60;;;5.27;;
5209;SDS011;2624;48.048;11.706;2023-06-19T07:26:29;5.73;;;5.10;;
5209;SDS011;2624;48.048;11.706;2023-06-19T07:31:31;6.33;;;5.60;;
5209;SDS011;2624;48.048;11.706;2023-06-19T07:36:32;6.80;;;5.50;;
5209;SDS011;2624;48.048;11.706;2023-06-19T07:41:35;5.90;;;5.30;;
5209;SDS011;2624;48.048;11.706;2023-06-19T07:46:37;6.30;;;5.57;;
5209;SDS011;2624;48.048;11.706;2023-06-19T07:51:39;12.63;;;4.90;;
5209;SDS011;2624;48.048;11.706;2023-06-19T07:56:42;5.27;;;4.77;;
5209;SDS011;2624;48.048;11.706;2023-06-19T08:01:43;6.77;;;4.53;;
5209;SDS011;2624;48.048;11.706;2023-06-19T08:06:45;8.43;;;5.10;;
5209;SDS011;2624;48.048;11.706;2023-06-19T08:11:48;6.30;;;5.70;;
5209;SDS011;2624;48.048;11.706;2023-06-19T08:16:50;7.50;;;4.00;;
5209;SDS011;2624;48.048;11.706;2023-06-19T08:21:52;4.97;;;4.23;;
5209;SDS011;2624;48.048;11.706;2023-06-19T08:26:55;5.17;;;4.67;;
5209;SDS011;2624;48.048;11.706;2023-06-19T08:31:56;4.63;;;4.23;;
5209;SDS011;2624;48.048;11.706;2023-06-19T08:36:58;5.53;;;4.83;;
5209;SDS011;2624;48.048;11.706;2023-06-19T08:42:01;4.13;;;3.83;;
5209;SDS011;2624;48.048;11.706;2023-06-19T08:47:03;4.07;;;3.73;;
5209;SDS011;2624;48.048;11.706;2023-06-19T08:52:06;3.17;;;2.97;;
5209;SDS011;2624;48.048;11.706;2023-06-19T08:57:10;4.03;;;3.73;;
5209;SDS011;2624;48.048;11.706;2023-06-19T09:02:12;3.33;;;3.13;;
5209;SDS011;2624;48.048;11.706;2023-06-19T09:07:14;7.93;;;4.63;;
5209;SDS011;2624;48.048;11.706;2023-06-19T09:12:17;3.60;;;3.30;;
5209;SDS011;2624;48.048;11.706;2023-06-19T09:17:19;5.07;;;4.47;;
5209;SDS011;2624;48.048;11.706;2023-06-19T09:22:22;8.10;;;3.70;;
5209;SDS011;2624;48.048;11.706;2023-06-19T09:27:31;5.00;;;4.60;;
5209;SDS011;2624;48.048;11.706;2023-06-19T09:32:33;3.67;;;3.43;;
5209;SDS011;2624;48.048;11.706;2023-06-19T09:37:35;3.90;;;3.60;;
5209;SDS011;2624;48.048;11.706;2023-06-19T09:42:42;4.00;;;3.60;;
5209;SDS011;2624;48.048;11.706;2023-06-19T09:47:45;4.13;;;3.03;;
5209;SDS011;2624;48.048;11.706;2023-06-19T09:52:47;3.40;;;3.20;;
5209;SDS011;2624;48.048;11.706;2023-06-19T09:57:52;3.40;;;3.10;;
5209;SDS011;2624;48.048;11.706;2023-06-19T10:02:54;3.47;;;3.23;;
5209;SDS011;2624;48.048;11.706;2023-06-19T10:07:58;3.93;;;3.63;;
5209;SDS011;2624;48.048;11.706;2023-06-19T10:13:12;4.50;;;4.10;;
5209;SDS011;2624;48.048;11.706;2023-06-19T10:18:15;3.90;;;3.60;;
5209;SDS011;2624;48.048;11.706;2023-06-19T10:23:19;3.10;;;2.90;;
5209;SDS011;2624;48.048;11.706;2023-06-19T10:28:24;3.13;;;2.93;;
5209;SDS011;2624;48.048;11.706;2023-06-19T10:33:28;2.60;;;2.40;;
5209;SDS011;2624;48.048;11.706;2023-06-19T10:38:30;3.60;;;3.30;;
5209;SDS011;2624;48.048;11.706;2023-06-19T10:43:33;4.80;;;3.20;;
5209;SDS011;2624;48.048;11.706;2023-06-19T10:48:35;3.27;;;3.07;;
5209;SDS011;2624;48.048;11.706;2023-06-19T10:53:37;2.83;;;2.73;;
5209;SDS011;2624;48.048;11.706;2023-06-19T10:58:41;3.47;;;3.17;;
5209;SDS011;2624;48.048;11.706;2023-06-19T11:03:43;3.57;;;3.10;;
5209;SDS011;2624;48.048;11.706;2023-06-19T11:08:50;3.80;;;3.50;;
5209;SDS011;2624;48.048;11.706;2023-06-19T11:13:54;3.93;;;3.40;;
5209;SDS011;2624;48.048;11.706;2023-06-19T11:18:56;4.40;;;3.80;;
5209;SDS011;2624;48.048;11.706;2023-06-19T11:23:58;4.00;;;3.50;;
5209;SDS011;2624;48.048;11.706;2023-06-19T11:29:01;3.63;;;2.13;;
5209;SDS011;2624;48.048;11.706;2023-06-19T11:34:03;4.27;;;3.90;;
5209;SDS011;2624;48.048;11.706;2023-06-19T11:39:08;4.23;;;4.03;;
5209;SDS011;2624;48.048;11.706;2023-06-19T11:44:14;3.80;;;3.47;;
5209;SDS011;2624;48.048;11.706;2023-06-19T11:49:16;5.10;;;3.67;;
5209;SDS011;2624;48.048;11.706;2023-06-19T11:54:19;7.13;;;4.10;;
5209;SDS011;2624;48.048;11.706;2023-06-19T11:59:22;6.67;;;4.77;;
5209;SDS011;2624;48.048;11.706;2023-06-19T12:04:24;4.20;;;3.90;;
5209;SDS011;2624;48.048;11.706;2023-06-19T12:09:26;3.43;;;3.13;;
5209;SDS011;2624;48.048;11.706;2023-06-19T12:14:29;2.00;;;1.33;;
5209;SDS011;2624;48.048;11.706;2023-06-19T12:19:31;3.73;;;3.43;;
5209;SDS011;2624;48.048;11.706;2023-06-19T12:24:32;3.70;;;3.50;;
5209;SDS011;2624;48.048;11.706;2023-06-19T12:29:35;4.20;;;3.83;;
5209;SDS011;2624;48.048;11.706;2023-06-19T12:34:37;4.10;;;3.80;;
5209;SDS011;2624;48.048;11.706;2023-06-19T12:39:39;4.30;;;3.90;;
5209;SDS011;2624;48.048;11.706;2023-06-19T12:44:43;3.93;;;3.50;;
5209;SDS011;2624;48.048;11.706;2023-06-19T12:49:45;2.27;;;2.17;;
5209;SDS011;2624;48.048;11.706;2023-06-19T12:54:46;2.77;;;2.67;;
5209;SDS011;2624;48.048;11.706;2023-06-19T12:59:49;4.03;;;3.40;;
5209;SDS011;2624;48.048;11.706;2023-06-19T13:04:52;3.10;;;2.90;;
5209;SDS011;2624;48.048;11.706;2023-06-19T13:09:53;4.03;;;3.73;;
5209;SDS011;2624;48.048;11.706;2023-06-19T13:14:57;3.87;;;3.57;;
5209;SDS011;2624;48.048;11.706;2023-06-19T13:19:58;5.00;;;3.50;;
5209;SDS011;2624;48.048;11.706;2023-06-19T13:25:00;3.00;;;2.90;;
5209;SDS011;2624;48.048;11.706;2023-06-19T13:30:04;6.57;;;4.07;;
5209;SDS011;2624;48.048;11.706;2023-06-19T13:35:07;4.53;;;4.23;;
5209;SDS011;2624;48.048;11.706;2023-06-19T13:40:09;3.70;;;3.50;;
5209;SDS011;2624;48.048;11.706;2023-06-19T13:45:13;5.63;;;4.10;;
5209;SDS011;2624;48.048;11.706;2023-06-19T13:50:14;4.90;;;4.40;;
5209;SDS011;2624;48.048;11.706;2023-06-19T13:55:19;5.23;;;4.17;;
5209;SDS011;2624;48.048;11.706;2023-06-19T14:00:22;3.73;;;3.40;;
5209;SDS011;2624;48.048;11.706;2023-06-19T14:05:23;3.80;;;3.60;;
5209;SDS011;2624;48.048;11.706;2023-06-19T14:10:26;3.80;;;3.60;;
5209;SDS011;2624;48.048;11.706;2023-06-19T14:15:29;3.80;;;3.57;;
5209;SDS011;2624;48.048;11.706;2023-06-19T14:20:31;3.80;;;3.57;;
5209;SDS011;2624;48.048;11.706;2023-06-19T14:25:33;3.83;;;3.53;;
5209;SDS011;2624;48.048;11.706;2023-06-19T14:30:36;4.50;;;4.20;;
5209;SDS011;2624;48.048;11.706;2023-06-19T14:35:38;3.93;;;3.67;;
5209;SDS011;2624;48.048;11.706;2023-06-19T14:40:40;4.80;;;4.50;;
5209;SDS011;2624;48.048;11.706;2023-06-19T14:45:44;5.00;;;3.97;;
5209;SDS011;2624;48.048;11.706;2023-06-19T14:50:47;3.43;;;3.13;;
5209;SDS011;2624;48.048;11.706;2023-06-19T14:55:48;7.20;;;4.13;;
5209;SDS011;2624;48.048;11.706;2023-06-19T15:00:52;14.40;;;4.30;;
5209;SDS011;2624;48.048;11.706;2023-06-19T15:05:54;3.57;;;3.27;;
5209;SDS011;2624;48.048;11.706;2023-06-19T15:10:55;4.00;;;3.60;;
5209;SDS011;2624;48.048;11.706;2023-06-19T15:15:58;5.13;;;3.03;;
5209;SDS011;2624;48.048;11.706;2023-06-19T15:21:00;6.53;;;3.47;;
5209;SDS011;2624;48.048;11.706;2023-06-19T15:26:03;3.90;;;3.70;;
5209;SDS011;2624;48.048;11.706;2023-06-19T15:31:08;3.97;;;3.70;;
5209;SDS011;2624;48.048;11.706;2023-06-19T15:36:09;4.57;;;4.17;;
5209;SDS011;2624;48.048;11.706;2023-06-19T15:41:11;5.07;;;4.60;;
5209;SDS011;2624;48.048;11.706;2023-06-19T15:46:14;3.90;;;3.60;;
5209;SDS011;2624;48.048;11.706;2023-06-19T15:51:16;4.30;;;3.60;;
5209;SDS011;2624;48.048;11.706;2023-06-19T15:56:18;7.00;;;4.03;;
5209;SDS011;2624;48.048;11.706;2023-06-19T16:01:21;4.17;;;3.90;;
5209;SDS011;2624;48.048;11.706;2023-06-19T16:06:23;4.53;;;4.10;;
5209;SDS011;2624;48.048;11.706;2023-06-19T16:11:25;6.73;;;4.40;;
5209;SDS011;2624;48.048;11.706;2023-06-19T16:16:28;11.37;;;5.30;;
5209;SDS011;2624;48.048;11.706;2023-06-19T16:21:30;5.20;;;4.53;;
5209;SDS011;2624;48.048;11.706;2023-06-19T16:26:31;6.13;;;4.60;;
5209;SDS011;2624;48.048;11.706;2023-06-19T16:31:35;5.63;;;5.07;;
5209;SDS011;2624;48.048;11.706;2023-06-19T16:36:37;4.23;;;3.93;;
5209;SDS011;2624;48.048;11.706;2023-06-19T16:41:39;7.20;;;4.27;;
5209;SDS011;2624;48.048;11.706;2023-06-19T16:46:43;8.43;;;3.93;;
5209;SDS011;2624;48.048;11.706;2023-06-19T16:51:45;6.47;;;5.17;;
5209;SDS011;2624;48.048;11.706;2023-06-19T16:56:47;5.57;;;4.90;;
5209;SDS011;2624;48.048;11.706;2023-06-19T17:01:50;5.93;;;4.27;;
5209;SDS011;2624;48.048;11.706;2023-06-19T17:06:52;4.43;;;4.13;;
5209;SDS011;2624;48.048;11.706;2023-06-19T17:11:54;4.13;;;3.87;;
5209;SDS011;2624;48.048;11.706;2023-06-19T17:16:57;4.80;;;4.40;;
5209;SDS011;2624;48.048;11.706;2023-06-19T17:21:59;4.33;;;3.93;;
5209;SDS011;2624;48.048;11.706;2023-06-19T17:27:00;4.00;;;3.70;;
5209;SDS011;2624;48.048;11.706;2023-06-19T17:32:04;4.60;;;4.20;;
5209;SDS011;2624;48.048;11.706;2023-06-19T17:37:06;5.07;;;4.50;;
5209;SDS011;2624;48.048;11.706;2023-06-19T17:42:08;5.37;;;4.90;;
5209;SDS011;2624;48.048;11.706;2023-06-19T17:47:12;9.10;;;4.13;;
5209;SDS011;2624;48.048;11.706;2023-06-19T17:52:15;5.30;;;4.90;;
5209;SDS011;2624;48.048;11.706;2023-06-19T17:57:17;6.20;;;4.23;;
5209;SDS011;2624;48.048;11.706;2023-06-19T18:02:20;6.00;;;5.40;;
5209;SDS011;2624;48.048;11.706;2023-06-19T18:07:22;5.10;;;4.30;;
5209;SDS011;2624;48.048;11.706;2023-06-19T18:12:23;4.63;;;4.33;;
5209;SDS011;2624;48.048;11.706;2023-06-19T18:17:26;9.30;;;4.17;;
5209;SDS011;2624;48.048;11.706;2023-06-19T18:22:28;9.43;;;4.40;;
5209;SDS011;2624;48.048;11.706;2023-06-19T18:27:30;4.80;;;3.90;;
5209;SDS011;2624;48.048;11.706;2023-06-19T18:32:33;4.90;;;4.50;;
5209;SDS011;2624;48.048;11.706;2023-06-19T18:37:35;4.57;;;4.20;;
5209;SDS011;2624;48.048;11.706;2023-06-19T18:42:37;6.27;;;5.10;;
5209;SDS011;2624;48.048;11.706;2023-06-19T18:47:42;5.60;;;5.20;;
5209;SDS011;2624;48.048;11.706;2023-06-19T18:52:43;5.60;;;4.90;;
5209;SDS011;2624;48.048;11.706;2023-06-19T18:57:45;5.30;;;4.90;;
5209;SDS011;2624;48.048;11.706;2023-06-19T19:02:49;5.47;;;4.97;;
5209;SDS011;2624;48.048;11.706;2023-06-19T19:07:52;6.27;;;5.47;;
5209;SDS011;2624;48.048;11.706;2023-06-19T19:12:53;5.43;;;5.00;;
5209;SDS011;2624;48.048;11.706;2023-06-19T19:17:56;6.63;;;5.93;;
5209;SDS011;2624;48.048;11.706;2023-06-19T19:22:58;6.17;;;5.67;;
5209;SDS011;2624;48.048;11.706;2023-06-19T19:28:00;5.50;;;5.00;;
5209;SDS011;2624;48.048;11.706;2023-06-19T19:33:04;10.97;;;5.53;;
5209;SDS011;2624;48.048;11.706;2023-06-19T19:38:05;16.07;;;5.53;;
5209;SDS011;2624;48.048;11.706;2023-06-19T19:43:07;5.10;;;4.67;;
5209;SDS011;2624;48.048;11.706;2023-06-19T19:48:10;7.37;;;6.37;;
5209;SDS011;2624;48.048;11.706;2023-06-19T19:53:12;6.10;;;5.67;;
5209;SDS011;2624;48.048;11.706;2023-06-19T19:58:13;11.40;;;6.83;;
5209;SDS011;2624;48.048;11.706;2023-06-19T20:03:18;9.50;;;5.90;;
5209;SDS011;2624;48.048;11.706;2023-06-19T20:08:19;10.70;;;6.90;;
5209;SDS011;2624;48.048;11.706;2023-06-19T20:13:21;6.87;;;6.17;;
5209;SDS011;2624;48.048;11.706;2023-06-19T20:18:24;7.40;;;6.70;;
5209;SDS011;2624;48.048;11.706;2023-06-19T20:23:26;6.60;;;6.17;;
5209;SDS011;2624;48.048;11.706;2023-06-19T20:28:27;7.77;;;6.93;;
5209;SDS011;2624;48.048;11.706;2023-06-19T20:33:30;13.30;;;6.70;;
5209;SDS011;2624;48.048;11.706;2023-06-19T20:38:32;8.17;;;6.90;;
5209;SDS011;2624;48.048;11.706;2023-06-19T20:43:34;7.23;;;6.53;;
5209;SDS011;2624;48.048;11.706;2023-06-19T20:48:37;7.90;;;7.10;;
5209;SDS011;2624;48.048;11.706;2023-06-19T20:53:39;8.13;;;7.33;;
5209;SDS011;2624;48.048;11.706;2023-06-19T20:58:41;9.60;;;7.57;;
5209;SDS011;2624;48.048;11.706;2023-06-19T21:03:44;7.03;;;6.23;;
5209;SDS011;2624;48.048;11.706;2023-06-19T21:08:49;7.40;;;6.70;;
5209;SDS011;2624;48.048;11.706;2023-06-19T21:13:51;7.57;;;6.77;;
5209;SDS011;2624;48.048;11.706;2023-06-19T21:18:54;8.13;;;5.90;;
5209;SDS011;2624;48.048;11.706;2023-06-19T21:23:56;6.07;;;5.33;;
5209;SDS011;2624;48.048;11.706;2023-06-19T21:28:58;8.90;;;4.97;;
5209;SDS011;2624;48.048;11.706;2023-06-19T21:34:01;4.40;;;4.07;;
5209;SDS011;2624;48.048;11.706;2023-06-19T21:39:02;3.80;;;3.60;;
5209;SDS011;2624;48.048;11.706;2023-06-19T21:44:04;3.63;;;3.13;;
5209;SDS011;2624;48.048;11.706;2023-06-19T21:49:07;3.53;;;3.33;;
5209;SDS011;2624;48.048;11.706;2023-06-19T21:54:09;2.43;;;2.27;;
5209;SDS011;2624;48.048;11.706;2023-06-19T21:59:10;2.63;;;2.23;;
5209;SDS011;2624;48.048;11.706;2023-06-19T22:04:13;2.73;;;2.10;;
5209;SDS011;2624;48.048;11.706;2023-06-19T22:09:15;1.37;;;1.37;;
5209;SDS011;2624;48.048;11.706;2023-06-19T22:14:17;1.60;;;1.50;;
5209;SDS011;2624;48.048;11.706;2023-06-19T22:19:20;5.50;;;1.60;;
5209;SDS011;2624;48.048;11.706;2023-06-19T22:24:25;5.03;;;1.70;;
5209;SDS011;2624;48.048;11.706;2023-06-19T22:29:26;5.83;;;1.87;;
5209;SDS011;2624;48.048;11.706;2023-06-19T22:34:29;2.70;;;1.77;;
5209;SDS011;2624;48.048;11.706;2023-06-19T22:39:31;3.00;;;1.83;;
5209;SDS011;2624;48.048;11.706;2023-06-19T22:44:33;2.10;;;2.00;;
5209;SDS011;2624;48.048;11.706;2023-06-19T22:49:36;3.43;;;1.90;;
5209;SDS011;2624;48.048;11.706;2023-06-19T22:54:38;2.00;;;1.97;;
5209;SDS011;2624;48.048;11.706;2023-06-19T22:59:39;3.03;;;2.30;;
5209;SDS011;2624;48.048;11.706;2023-06-19T23:04:43;2.27;;;2.17;;
5209;SDS011;2624;48.048;11.706;2023-06-19T23:09:45;4.03;;;2.40;;
5209;SDS011;2624;48.048;11.706;2023-06-19T23:14:46;2.60;;;2.50;;
5209;SDS011;2624;48.048;11.706;2023-06-19T23:19:49;2.30;;;1.80;;
5209;SDS011;2624;48.048;11.706;2023-06-19T23:24:51;2.63;;;2.43;;
5209;SDS011;2624;48.048;11.706;2023-06-19T23:29:53;3.07;;;2.80;;
5209;SDS011;2624;48.048;11.706;2023-06-19T23:34:56;2.90;;;1.87;;
5209;SDS011;2624;48.048;11.706;2023-06-19T23:39:59;2.40;;;2.30;;
5209;SDS011;2624;48.048;11.706;2023-06-19T23:45:00;2.90;;;2.27;;
5209;SDS011;2624;48.048;11.706;2023-06-19T23:50:04;5.40;;;1.90;;
5209;SDS011;2624;48.048;11.706;2023-06-19T23:55:07;2.67;;;2.47;;
